地図

経路データ

SID SEASON NUMBER BASIN SUBBASIN NAME ISO_TIME NATURE LAT LON WMO_WIND WMO_PRES WMO_AGENCY TRACK_TYPE DIST2LAND LANDFALL IFLAG USA_AGENCY USA_ATCF_ID USA_LAT USA_LON USA_RECORD USA_STATUS USA_WIND USA_PRES USA_SSHS USA_R34_NE USA_R34_SE USA_R34_SW USA_R34_NW USA_R50_NE USA_R50_SE USA_R50_SW USA_R50_NW USA_R64_NE USA_R64_SE USA_R64_SW USA_R64_NW USA_POCI USA_ROCI USA_RMW USA_EYE TOKYO_LAT TOKYO_LON TOKYO_GRADE TOKYO_WIND TOKYO_PRES TOKYO_R50_DIR TOKYO_R50_LONG TOKYO_R50_SHORT TOKYO_R30_DIR TOKYO_R30_LONG TOKYO_R30_SHORT TOKYO_LAND CMA_LAT CMA_LON CMA_CAT CMA_WIND CMA_PRES HKO_LAT HKO_LON HKO_CAT HKO_WIND HKO_PRES NEWDELHI_LAT NEWDELHI_LON NEWDELHI_GRADE NEWDELHI_WIND NEWDELHI_PRES NEWDELHI_CI NEWDELHI_DP NEWDELHI_POCI REUNION_LAT REUNION_LON REUNION_TYPE REUNION_WIND REUNION_PRES REUNION_TNUM REUNION_CI REUNION_RMW REUNION_R34_NE REUNION_R34_SE REUNION_R34_SW REUNION_R34_NW REUNION_R50_NE REUNION_R50_SE REUNION_R50_SW REUNION_R50_NW REUNION_R64_NE REUNION_R64_SE REUNION_R64_SW REUNION_R64_NW BOM_LAT BOM_LON BOM_TYPE BOM_WIND BOM_PRES BOM_TNUM BOM_CI BOM_RMW BOM_R34_NE BOM_R34_SE BOM_R34_SW BOM_R34_NW BOM_R50_NE BOM_R50_SE BOM_R50_SW BOM_R50_NW BOM_R64_NE BOM_R64_SE BOM_R64_SW BOM_R64_NW BOM_ROCI BOM_POCI BOM_EYE BOM_POS_METHOD BOM_PRES_METHOD NADI_LAT NADI_LON NADI_CAT NADI_WIND NADI_PRES WELLINGTON_LAT WELLINGTON_LON WELLINGTON_WIND WELLINGTON_PRES DS824_LAT DS824_LON DS824_STAGE DS824_WIND DS824_PRES TD9636_LAT TD9636_LON TD9636_STAGE TD9636_WIND TD9636_PRES TD9635_LAT TD9635_LON TD9635_WIND TD9635_PRES TD9635_ROCI NEUMANN_LAT NEUMANN_LON NEUMANN_CLASS NEUMANN_WIND NEUMANN_PRES MLC_LAT MLC_LON MLC_CLASS MLC_WIND MLC_PRES USA_GUST BOM_GUST BOM_GUST_PER REUNION_GUST REUNION_GUST_PER USA_SEAHGT USA_SEARAD_NE USA_SEARAD_SE USA_SEARAD_SW USA_SEARAD_NW STORM_SPEED STORM_DIR
1992223N15236 1992 65 EP MM NOT_NAMED 1992-08-10 00:00:00 TS 14.5000 -124.500 25 hurdat_epa main 1726 1726 O_____________ hurdat_epa EP121992 14.5000 -124.500 TD 25 -1 10 316
1992223N15236 1992 65 EP MM NOT_NAMED 1992-08-10 03:00:00 TS 14.8501 -124.850 main 1719 1719 P_____________ EP121992 14.8501 -124.850 TD 27 -1 10 316
1992223N15236 1992 65 EP MM NOT_NAMED 1992-08-10 06:00:00 TS 15.2000 -125.200 30 hurdat_epa main 1729 1729 O_____________ hurdat_epa EP121992 15.2000 -125.200 TD 30 -1 10 316
1992223N15236 1992 65 EP MM NOT_NAMED 1992-08-10 09:00:00 TS 15.5499 -125.550 main 1740 1731 P_____________ EP121992 15.5499 -125.550 TD 30 -1 10 316
1992223N15236 1992 65 EP MM NOT_NAMED 1992-08-10 12:00:00 TS 15.9000 -125.900 30 hurdat_epa main 1731 1719 O_____________ hurdat_epa EP121992 15.9000 -125.900 TD 30 -1 10 317
1992223N15236 1992 65 EP MM NOT_NAMED 1992-08-10 15:00:00 TS 16.2573 -126.228 main 1717 1714 P_____________ EP121992 16.2573 -126.228 TD 30 -1 10 316
1992223N15236 1992 65 EP MM NOT_NAMED 1992-08-10 18:00:00 TS 16.6000 -126.600 30 hurdat_epa main 1720 1717 O_____________ hurdat_epa EP121992 16.6000 -126.600 TD 30 -1 11 310
1992223N15236 1992 65 EP MM NOT_NAMED 1992-08-10 21:00:00 TS 16.9300 -127.070 main 1731 1723 P_____________ EP121992 16.9300 -127.070 TD 30 -1 11 302
1992223N15236 1992 65 EP MM NOT_NAMED 1992-08-11 00:00:00 TS 17.2000 -127.600 30 hurdat_epa main 1745 1744 O_____________ hurdat_epa EP121992 17.2000 -127.600 TD 30 -1 11 294
1992223N15236 1992 65 EP MM NOT_NAMED 1992-08-11 03:00:00 TS 17.3799 -128.143 main 1767 1767 P_____________ EP121992 17.3799 -128.143 TD 30 -1 11 286
1992223N15236 1992 65 EP MM NOT_NAMED 1992-08-11 06:00:00 TS 17.5000 -128.700 30 hurdat_epa main 1807 1807 O_____________ hurdat_epa EP121992 17.5000 -128.700 TD 30 -1 11 282
1992223N15236 1992 65 EP MM NOT_NAMED 1992-08-11 09:00:00 TS 17.6149 -129.258 main 1848 1848 P_____________ EP121992 17.6149 -129.258 TD 27 -1 11 281
1992223N15236 1992 65 EP MM NOT_NAMED 1992-08-11 12:00:00 TS 17.7000 -129.800 25 hurdat_epa main 1881 1881 O_____________ hurdat_epa EP121992 17.7000 -129.800 TD 25 -1 10 278
1992223N15236 1992 65 EP MM NOT_NAMED 1992-08-11 15:00:00 TS 17.7574 -130.315 main 1916 1916 P_____________ EP121992 17.7574 -130.315 TD 25 -1 10 276
1992223N15236 1992 65 EP MM NOT_NAMED 1992-08-11 18:00:00 TS 17.8000 -130.800 25 hurdat_epa main 1958 1958 O_____________ hurdat_epa EP121992 17.8000 -130.800 TD 25 -1 9 276
1992223N15236 1992 65 EP MM NOT_NAMED 1992-08-11 21:00:00 TS 17.8499 -131.265 main 2000 1994 P_____________ EP121992 17.8499 -131.265 TD 25 -1 9 277
1992223N15236 1992 65 EP MM NOT_NAMED 1992-08-12 00:00:00 TS 17.9000 -131.700 25 hurdat_epa main 2028 2028 O_____________ hurdat_epa EP121992 17.9000 -131.700 TD 25 -1 8 277
1992223N15236 1992 65 EP MM NOT_NAMED 1992-08-12 03:00:00 TS 17.9499 -132.115 main 2062 2056 P_____________ EP121992 17.9499 -132.115 TD 25 -1 8 277
1992223N15236 1992 65 EP MM NOT_NAMED 1992-08-12 06:00:00 TS 18.0000 -132.500 25 hurdat_epa main 2091 2091 O_____________ hurdat_epa EP121992 18.0000 -132.500 TD 25 -1 7 278
1992223N15236 1992 65 EP MM NOT_NAMED 1992-08-12 09:00:00 TS 18.0499 -132.858 main 2126 2119 P_____________ EP121992 18.0499 -132.858 TD 25 -1 7 279
1992223N15236 1992 65 EP MM NOT_NAMED 1992-08-12 12:00:00 TS 18.1000 -133.200 25 hurdat_epa main 2146 2146 O_____________ hurdat_epa EP121992 18.1000 -133.200 TD 25 -1 7 279
1992223N15236 1992 65 EP MM NOT_NAMED 1992-08-12 15:00:00 TS 18.1499 -133.550 main 2181 2175 P_____________ EP121992 18.1499 -133.550 TD 25 -1 7 279
1992223N15236 1992 65 EP MM NOT_NAMED 1992-08-12 18:00:00 TS 18.2000 -133.900 25 hurdat_epa main 2202 2171 O_____________ hurdat_epa EP121992 18.2000 -133.900 TD 25 -1 7 279
1992223N15236 1992 65 EP MM NOT_NAMED 1992-08-12 21:00:00 TS 18.2501 -134.250 main 2170 2128 P_____________ EP121992 18.2501 -134.250 TD 22 -1 7 279
1992223N15236 1992 65 EP MM NOT_NAMED 1992-08-13 00:00:00 TS 18.3000 -134.600 20 hurdat_epa main 2128 O_____________ hurdat_epa EP121992 18.3000 -134.600 TD 20 -1 7 278

IBTrACS Databaseについて

本データベースは、米国NOAAが公開する1842年以降の世界の熱帯低気圧のベストトラックデータアーカイブInternational Best Track Archive for Climate Stewardship (IBTrACS)を、ウェブで閲覧しやすい形式に変換したものです。

最終更新日:2021-12-03